DOL weather

Deauville-Saint-Gatien Airport
Deauville, Lower Normandy, France

Public forecast

Using degrees Celsius for public forecast. Weather courtesy of forecast.io.

METAR (pilot weather report)

Retrieved 2019/09/17 23:30 UTC (14 minutes ago):

LFRG 172330Z AUTO 05007KT 360V090 CAVOK 12/08 Q1026

TAF (pilot weather forecast)

Closest forecast is Le Havre Octeville Airport, 10.4 nm (19.3 km) NNW. Retrieved 2019/09/17 18:06 UTC (6 hours ago):

TAF LFOH 171800Z 1718/1812 CNL